createdAt,value
2023-05-12T00:01:48.377Z,100354.31
2023-05-12T00:04:15.083Z,100355.22
2023-05-12T00:06:41.798Z,100356.94
2023-05-12T00:09:08.390Z,100354.31
2023-05-12T00:11:36.127Z,100353.44
2023-05-12T00:14:02.752Z,100356.06
2023-05-12T00:16:32.017Z,100358.56
2023-05-12T00:18:58.787Z,100353.31
2023-05-12T00:21:25.429Z,100357.63
2023-05-12T00:23:52.170Z,100350.69
2023-05-12T00:26:18.808Z,100349.84
2023-05-12T00:28:47.637Z,100342.03
2023-05-12T00:31:14.464Z,100343.81
2023-05-12T00:33:43.318Z,100350.72
2023-05-12T00:36:12.905Z,100341.19
2023-05-12T00:38:39.866Z,100341.22
2023-05-12T00:41:09.014Z,100339.41
2023-05-12T00:43:36.124Z,100336.72
2023-05-12T00:46:02.858Z,100336.78
2023-05-12T00:48:31.876Z,100342.91
2023-05-12T00:51:00.842Z,100337.69
2023-05-12T00:53:32.674Z,100343.00
2023-05-12T00:56:05.060Z,100332.56
2023-05-12T00:58:32.254Z,100330.00
2023-05-12T01:01:02.067Z,100335.22
2023-05-12T01:03:29.466Z,100326.47
2023-05-12T01:05:59.372Z,100335.13
2023-05-12T01:08:26.137Z,100338.59
2023-05-12T01:10:55.241Z,100329.03
2023-05-12T01:13:21.896Z,100328.16
2023-05-12T01:15:50.731Z,100333.44
2023-05-12T01:18:20.473Z,100330.81
2023-05-12T01:20:50.558Z,100328.22
2023-05-12T01:23:19.083Z,100330.78
2023-05-12T01:25:46.516Z,100326.38
2023-05-12T01:28:15.534Z,100334.19
2023-05-12T01:30:42.212Z,100332.44
2023-05-12T01:33:10.383Z,100328.91
2023-05-12T01:35:37.662Z,100332.38
2023-05-12T01:38:04.399Z,100334.97
2023-05-12T01:40:34.551Z,100338.47
2023-05-12T01:43:01.797Z,100332.38
2023-05-12T01:45:32.136Z,100327.16
2023-05-12T01:47:59.113Z,100338.41
2023-05-12T01:50:25.791Z,100332.19
2023-05-12T01:52:52.438Z,100340.03
2023-05-12T01:55:20.125Z,100341.69
2023-05-12T01:57:51.878Z,100342.56
2023-05-12T02:00:22.218Z,100346.97
2023-05-12T02:02:51.726Z,100354.00
2023-05-12T02:05:20.712Z,100355.81
2023-05-12T02:07:50.327Z,100353.97
2023-05-12T02:10:18.009Z,100351.41
2023-05-12T02:12:47.733Z,100359.22
2023-05-12T02:15:14.525Z,100353.19
2023-05-12T02:17:46.199Z,100358.47
2023-05-12T02:20:14.780Z,100360.28
2023-05-12T02:22:42.939Z,100361.16
2023-05-12T02:25:09.562Z,100359.47
2023-05-12T02:27:38.988Z,100357.78
2023-05-12T02:30:06.692Z,100355.28
2023-05-12T02:32:38.829Z,100359.59
2023-05-12T02:35:07.598Z,100359.53
2023-05-12T02:37:36.270Z,100356.00
2023-05-12T02:40:08.383Z,100353.31
2023-05-12T02:42:36.255Z,100355.81
2023-05-12T02:45:05.463Z,100366.19
2023-05-12T02:47:34.491Z,100361.75
2023-05-12T02:50:03.585Z,100368.59
2023-05-12T02:52:34.224Z,100358.13
2023-05-12T02:55:01.387Z,100367.69
2023-05-12T02:57:34.077Z,100363.28
2023-05-12T03:00:06.743Z,100364.16
2023-05-12T03:02:40.097Z,100363.22
2023-05-12T03:05:08.524Z,100363.97
2023-05-12T03:07:38.497Z,100366.56
2023-05-12T03:10:06.048Z,100367.38
2023-05-12T03:12:32.737Z,100368.22
2023-05-12T03:15:02.334Z,100361.28
2023-05-12T03:17:28.950Z,100363.03
2023-05-12T03:19:58.062Z,100363.91
2023-05-12T03:22:24.835Z,100359.47
2023-05-12T03:24:56.338Z,100363.81
2023-05-12T03:27:23.159Z,100356.00
2023-05-12T03:29:50.251Z,100368.19
2023-05-12T03:32:16.873Z,100368.16
2023-05-12T03:34:46.102Z,100371.66
2023-05-12T03:37:12.771Z,100374.25
2023-05-12T03:39:39.556Z,100369.84
2023-05-12T03:42:06.425Z,100375.88
2023-05-12T03:44:36.199Z,100373.25
2023-05-12T03:47:05.827Z,100370.44
2023-05-12T03:49:36.182Z,100375.66
2023-05-12T03:52:03.230Z,100373.84
2023-05-12T03:54:32.470Z,100378.31
2023-05-12T03:57:01.666Z,100380.78
2023-05-12T03:59:30.974Z,100380.72
2023-05-12T04:01:57.736Z,100382.59
2023-05-12T04:04:24.589Z,100377.31
2023-05-12T04:06:51.250Z,100387.75
2023-05-12T04:09:19.010Z,100386.06
2023-05-12T04:11:48.633Z,100392.28
2023-05-12T04:14:20.440Z,100393.19
2023-05-12T04:16:50.080Z,100395.84
2023-05-12T04:19:17.141Z,100387.22
2023-05-12T04:21:43.975Z,100400.31
2023-05-12T04:24:10.694Z,100396.00
2023-05-12T04:26:37.708Z,100392.56
2023-05-12T04:29:06.788Z,100396.13
2023-05-12T04:31:33.922Z,100395.25
2023-05-12T04:34:02.829Z,100394.41
2023-05-12T04:36:31.516Z,100402.34
2023-05-12T04:38:58.492Z,100398.13
2023-05-12T04:41:25.615Z,100397.34
2023-05-12T04:46:22.411Z,100395.78
2023-05-12T04:48:51.981Z,100395.88
2023-05-12T04:51:18.653Z,100391.66
2023-05-12T04:53:45.915Z,100393.47
2023-05-12T04:56:12.535Z,100397.94
2023-05-12T04:58:39.262Z,100392.72
2023-05-12T05:01:09.654Z,100401.47
2023-05-12T05:03:36.759Z,100391.91
2023-05-12T05:06:04.002Z,100398.97
2023-05-12T05:08:31.229Z,100401.66
2023-05-12T05:11:00.061Z,100397.38
2023-05-12T05:13:28.188Z,100409.63
2023-05-12T05:15:57.630Z,100401.78
2023-05-12T05:18:32.015Z,100402.72
2023-05-12T05:20:59.306Z,100405.28
2023-05-12T05:23:27.335Z,100401.03
2023-05-12T05:25:54.810Z,100407.28
2023-05-12T05:28:22.019Z,100397.84
2023-05-12T05:30:48.712Z,100407.41
2023-05-12T05:33:15.396Z,100411.72
2023-05-12T05:35:42.604Z,100408.16
2023-05-12T05:38:10.868Z,100408.16
2023-05-12T05:40:52.262Z,100411.59
2023-05-12T05:43:21.340Z,100408.94
2023-05-12T05:45:50.072Z,100406.38
2023-05-12T05:48:20.957Z,100410.97
2023-05-12T05:50:48.268Z,100413.63
2023-05-12T05:53:15.208Z,100418.84
2023-05-12T05:55:42.910Z,100413.63
2023-05-12T05:58:12.104Z,100414.50
2023-05-12T06:00:41.570Z,100407.59
2023-05-12T06:03:11.065Z,100418.09
2023-05-12T06:05:37.974Z,100416.41
2023-05-12T06:08:05.394Z,100426.03
2023-05-12T06:10:34.948Z,100425.22
2023-05-12T06:13:04.741Z,100427.94
2023-05-12T06:15:35.468Z,100422.72
2023-05-12T06:18:06.982Z,100431.47
2023-05-12T06:20:36.413Z,100417.59
2023-05-12T06:23:03.150Z,100424.63
2023-05-12T06:25:29.778Z,100421.25
2023-05-12T06:27:56.451Z,100416.97
2023-05-12T06:30:23.496Z,100420.53
2023-05-12T06:32:59.660Z,100417.91
2023-05-12T06:35:27.706Z,100419.66
2023-05-12T06:37:59.294Z,100418.81
2023-05-12T06:40:26.029Z,100428.41
2023-05-12T06:42:53.175Z,100417.97
2023-05-12T06:45:23.874Z,100416.34
2023-05-12T06:47:51.323Z,100428.59
2023-05-12T06:50:20.853Z,100422.50
2023-05-12T06:52:54.283Z,100419.03
2023-05-12T06:55:21.183Z,100415.59
2023-05-12T06:57:48.079Z,100419.22
2023-05-12T07:00:15.205Z,100421.03
2023-05-12T07:02:42.079Z,100421.84
2023-05-12T07:05:10.997Z,100421.00
2023-05-12T07:07:40.010Z,100422.84
2023-05-12T07:10:10.079Z,100426.44
2023-05-12T07:12:39.882Z,100420.31
2023-05-12T07:15:06.944Z,100424.69
2023-05-12T07:17:33.654Z,100420.41
2023-05-12T07:20:05.817Z,100417.00
2023-05-12T07:22:32.797Z,100421.38
2023-05-12T07:24:59.932Z,100420.63
2023-05-12T07:27:26.997Z,100415.44
2023-05-12T07:29:56.097Z,100416.34
2023-05-12T07:32:23.099Z,100417.25
2023-05-12T07:34:53.566Z,100413.75
2023-05-12T07:37:22.910Z,100413.75
2023-05-12T07:39:49.894Z,100415.50
2023-05-12T07:42:16.530Z,100419.94
2023-05-12T07:44:43.123Z,100425.16
2023-05-12T07:47:09.839Z,100423.34
2023-05-12T07:49:36.528Z,100423.31
2023-05-12T07:52:03.289Z,100414.53
2023-05-12T07:54:30.150Z,100434.56
2023-05-12T07:56:57.150Z,100426.69
2023-05-12T07:59:24.115Z,100432.75
2023-05-12T08:01:54.059Z,100429.25
2023-05-12T08:04:22.632Z,100428.47
2023-05-12T08:06:52.424Z,100430.25
2023-05-12T08:09:19.139Z,100432.06
2023-05-12T08:11:48.083Z,100448.78
2023-05-12T08:14:19.014Z,100435.66
2023-05-12T08:16:51.092Z,100433.03
2023-05-12T08:19:18.053Z,100441.75
2023-05-12T08:21:47.098Z,100438.22
2023-05-12T08:24:13.762Z,100438.22
2023-05-12T08:26:42.712Z,100433.91
2023-05-12T08:29:12.153Z,100439.13
2023-05-12T08:31:39.343Z,100433.16
2023-05-12T08:34:11.158Z,100442.00
2023-05-12T08:36:38.783Z,100439.50
2023-05-12T08:39:05.649Z,100437.94
2023-05-12T08:41:37.221Z,100447.69
2023-05-12T08:44:03.859Z,100444.28
2023-05-12T08:46:33.821Z,100446.06
2023-05-12T08:49:02.142Z,100446.88
2023-05-12T08:51:29.392Z,100446.84
2023-05-12T08:53:56.282Z,100459.91
2023-05-12T08:58:55.098Z,100456.19
2023-05-12T09:01:24.025Z,100461.44
2023-05-12T09:03:53.992Z,100454.38
2023-05-12T09:06:23.109Z,100467.44
2023-05-12T09:08:52.246Z,100465.66
2023-05-12T09:11:18.878Z,100456.84
2023-05-12T09:13:55.484Z,100460.25
2023-05-12T09:16:23.802Z,100462.66
2023-05-12T09:18:50.723Z,100462.44
2023-05-12T09:21:17.729Z,100468.47
2023-05-12T09:23:59.104Z,100470.91
2023-05-12T09:26:26.894Z,100472.50
2023-05-12T09:29:06.493Z,100469.75
2023-05-12T09:31:36.211Z,100484.38
2023-05-12T09:34:07.196Z,100474.47
2023-05-12T09:36:34.474Z,100492.94
2023-05-12T09:39:05.124Z,100493.81
2023-05-12T09:41:37.083Z,100497.28
2023-05-12T09:44:04.079Z,100498.06
2023-05-12T09:46:31.076Z,100504.09
2023-05-12T09:49:00.407Z,100499.75
2023-05-12T09:51:27.145Z,100501.47
2023-05-12T09:53:54.262Z,100510.19
2023-05-12T09:56:21.351Z,100513.78
2023-05-12T09:58:48.948Z,100502.47
2023-05-12T10:01:22.799Z,100498.16
2023-05-12T10:03:53.602Z,100506.00
2023-05-12T10:06:30.507Z,100502.44
2023-05-12T10:09:05.659Z,100508.41
2023-05-12T10:11:32.419Z,100512.50
2023-05-12T10:14:02.659Z,100512.38
2023-05-12T10:16:31.856Z,100527.88
2023-05-12T10:18:58.584Z,100523.47
2023-05-12T10:21:26.526Z,100517.38
2023-05-12T10:23:53.310Z,100516.53
2023-05-12T10:26:22.189Z,100521.97
2023-05-12T10:28:48.971Z,100525.50
2023-05-12T10:31:16.142Z,100525.50
2023-05-12T10:33:42.725Z,100528.28
2023-05-12T10:36:19.377Z,100522.44
2023-05-12T10:38:47.748Z,100524.13
2023-05-12T10:41:14.383Z,100522.44
2023-05-12T10:43:47.056Z,100516.47
2023-05-12T10:46:21.002Z,100512.09
2023-05-12T10:48:58.722Z,100506.06
2023-05-12T10:51:28.564Z,100515.41
2023-05-12T10:54:01.614Z,100513.69
2023-05-12T10:56:29.563Z,100514.50
2023-05-12T10:59:14.774Z,100517.06
2023-05-12T11:02:05.549Z,100525.88
2023-05-12T11:04:37.608Z,100520.59
2023-05-12T11:07:08.347Z,100517.94
2023-05-12T11:09:53.137Z,100522.44
2023-05-12T11:12:24.559Z,100517.34
2023-05-12T11:14:53.626Z,100516.69
2023-05-12T11:17:20.433Z,100521.91
2023-05-12T11:19:48.080Z,100522.78
2023-05-12T11:22:19.904Z,100518.66
2023-05-12T11:24:47.417Z,100524.97
2023-05-12T11:27:15.034Z,100525.84
2023-05-12T11:29:42.435Z,100518.97
2023-05-12T11:32:12.734Z,100515.38
2023-05-12T11:34:39.396Z,100509.19
2023-05-12T11:37:06.731Z,100510.72
2023-05-12T11:39:35.684Z,100518.56
2023-05-12T11:42:13.625Z,100515.94
2023-05-12T11:44:53.029Z,100515.09
2023-05-12T11:47:20.089Z,100516.88
2023-05-12T11:49:51.157Z,100508.09
2023-05-12T11:52:19.576Z,100498.47
2023-05-12T11:54:52.228Z,100506.38
2023-05-12T11:57:26.804Z,100515.97
2023-05-12T12:00:00.633Z,100518.63
2023-05-12T12:02:30.165Z,100510.78
2023-05-12T12:04:59.178Z,100517.69
2023-05-12T12:07:32.059Z,100510.72
2023-05-12T12:09:59.204Z,100524.81
2023-05-12T12:12:25.860Z,100510.91
2023-05-12T12:14:52.692Z,100503.94
2023-05-12T12:17:30.315Z,100513.59
2023-05-12T12:19:57.305Z,100509.19
2023-05-12T12:22:26.275Z,100519.56
2023-05-12T12:24:55.429Z,100514.16
2023-05-12T12:27:25.230Z,100518.41
2023-05-12T12:29:52.075Z,100527.09
2023-05-12T12:32:18.668Z,100529.59
2023-05-12T12:34:50.882Z,100524.34
2023-05-12T12:37:20.106Z,100533.03
2023-05-12T12:39:49.011Z,100531.16
2023-05-12T12:42:15.823Z,100532.91
2023-05-12T12:44:42.761Z,100525.88
2023-05-12T12:47:09.594Z,100531.88
2023-05-12T12:49:40.909Z,100523.88
2023-05-12T12:52:08.729Z,100527.25
2023-05-12T12:54:41.348Z,100525.22
2023-05-12T12:57:10.977Z,100525.09
2023-05-12T12:59:40.424Z,100523.28
2023-05-12T13:02:09.277Z,100525.91
2023-05-12T13:04:40.642Z,100524.22
2023-05-12T13:07:10.906Z,100525.16
2023-05-12T13:09:38.773Z,100522.53
2023-05-12T13:12:08.417Z,100523.41
2023-05-12T13:14:44.818Z,100521.53
2023-05-12T13:17:11.523Z,100514.50
2023-05-12T13:19:40.760Z,100518.13
2023-05-12T13:22:12.457Z,100522.53
2023-05-12T13:24:39.272Z,100513.81
2023-05-12T13:27:11.588Z,100515.56
2023-05-12T13:29:42.397Z,100516.31
2023-05-12T13:32:09.110Z,100517.16
2023-05-12T13:34:35.686Z,100511.84
2023-05-12T13:37:02.315Z,100516.31
2023-05-12T13:39:28.996Z,100519.78
2023-05-12T13:41:58.254Z,100517.97
2023-05-12T13:44:24.953Z,100516.25
2023-05-12T13:46:52.704Z,100523.16
2023-05-12T13:49:24.326Z,100520.53
2023-05-12T13:51:53.090Z,100531.81
2023-05-12T13:54:19.924Z,100528.25
2023-05-12T13:56:49.010Z,100531.72
2023-05-12T13:59:18.004Z,100524.75
2023-05-12T14:01:47.203Z,100528.28
2023-05-12T14:04:14.418Z,100526.56
2023-05-12T14:06:41.017Z,100527.50
2023-05-12T14:09:13.678Z,100526.56
2023-05-12T14:11:43.034Z,100530.81
2023-05-12T14:14:09.750Z,100534.22
2023-05-12T14:16:41.672Z,100541.97
2023-05-12T14:19:08.362Z,100539.38
2023-05-12T14:21:34.975Z,100538.44
2023-05-12T14:24:01.984Z,100546.22
2023-05-12T14:26:28.646Z,100541.00
2023-05-12T14:28:58.075Z,100547.00
2023-05-12T14:31:27.456Z,100542.56
2023-05-12T14:33:54.172Z,100545.88
2023-05-12T14:36:20.899Z,100547.53
2023-05-12T14:38:49.190Z,100542.31
2023-05-12T14:41:16.292Z,100553.69
2023-05-12T14:43:43.005Z,100556.31
2023-05-12T14:46:12.073Z,100564.06
2023-05-12T14:48:39.276Z,100570.97
2023-05-12T14:51:10.657Z,100568.19
2023-05-12T14:53:37.365Z,100569.06
2023-05-12T14:56:04.044Z,100572.59
2023-05-12T14:58:33.024Z,100578.63
2023-05-12T15:01:02.065Z,100574.34
2023-05-12T15:03:29.158Z,100574.34
2023-05-12T15:06:05.701Z,100579.56
2023-05-12T15:08:33.575Z,100577.78
2023-05-12T15:11:00.229Z,100577.03
2023-05-12T15:13:29.808Z,100579.63
2023-05-12T15:15:57.090Z,100582.25
2023-05-12T15:18:24.078Z,100580.34
2023-05-12T15:20:50.897Z,100581.09
2023-05-12T15:23:17.597Z,100587.16
2023-05-12T15:25:46.537Z,100584.50
2023-05-12T15:28:15.614Z,100591.47
2023-05-12T15:30:42.266Z,100588.03
2023-05-12T15:33:08.955Z,100591.53
2023-05-12T15:35:40.796Z,100588.03
2023-05-12T15:38:07.726Z,100589.78
2023-05-12T15:40:34.619Z,100590.66
2023-05-12T15:43:01.668Z,100593.31
2023-05-12T15:45:28.313Z,100587.28
2023-05-12T15:47:57.979Z,100589.88
2023-05-12T15:50:24.694Z,100581.19
2023-05-12T15:52:53.632Z,100583.00
2023-05-12T15:55:22.757Z,100582.13
2023-05-12T15:57:54.297Z,100586.47
2023-05-12T16:00:22.685Z,100581.19
2023-05-12T16:02:51.826Z,100577.75
2023-05-12T16:05:21.424Z,100582.09
2023-05-12T16:07:50.606Z,100586.41
2023-05-12T16:10:21.242Z,100583.84
2023-05-12T16:12:48.383Z,100593.41
2023-05-12T16:15:15.001Z,100590.81
2023-05-12T16:17:41.686Z,100589.06
2023-05-12T16:20:13.123Z,100587.34
2023-05-12T16:22:44.917Z,100586.47
2023-05-12T16:25:11.582Z,100596.91
2023-05-12T16:27:40.696Z,100585.59
2023-05-12T16:30:09.683Z,100595.06
2023-05-12T16:32:36.845Z,100595.03
2023-05-12T16:35:04.082Z,100594.91
2023-05-12T16:37:30.813Z,100593.88
2023-05-12T16:39:57.579Z,100595.56
2023-05-12T16:42:29.778Z,100598.16
2023-05-12T16:44:56.398Z,100600.78
2023-05-12T16:47:23.515Z,100598.00
2023-05-12T16:49:57.774Z,100608.44
2023-05-12T16:52:24.841Z,100609.38
2023-05-12T16:54:51.927Z,100611.13
2023-05-12T16:57:18.821Z,100612.84
2023-05-12T16:59:48.262Z,100610.16
2023-05-12T17:02:17.748Z,100610.16
2023-05-12T17:04:44.812Z,100605.75
2023-05-12T17:07:11.544Z,100599.59
2023-05-12T17:09:38.162Z,100606.47
2023-05-12T17:12:06.809Z,100606.31
2023-05-12T17:14:34.987Z,100601.88
2023-05-12T17:17:02.322Z,100619.28
2023-05-12T17:19:29.154Z,100609.69
2023-05-12T17:21:55.904Z,100620.13
2023-05-12T17:24:24.954Z,100622.66
2023-05-12T17:26:51.657Z,100623.50
2023-05-12T17:29:18.352Z,100627.00
2023-05-12T17:31:45.061Z,100636.56
2023-05-12T17:34:11.765Z,100629.56
2023-05-12T17:36:40.780Z,100634.72
2023-05-12T17:39:07.532Z,100635.50
2023-05-12T17:41:34.213Z,100631.16
2023-05-12T17:44:03.321Z,100637.16
2023-05-12T17:46:29.927Z,100635.31
2023-05-12T17:48:59.438Z,100642.31
2023-05-12T17:51:30.486Z,100648.34
2023-05-12T17:53:57.087Z,100646.56
2023-05-12T17:56:26.603Z,100649.09
2023-05-12T17:58:56.270Z,100656.81
2023-05-12T18:01:25.440Z,100647.19
2023-05-12T18:03:54.538Z,100647.94
2023-05-12T18:06:21.591Z,100652.13
2023-05-12T18:08:48.595Z,100644.28
2023-05-12T18:11:16.281Z,100652.06
2023-05-12T18:13:42.930Z,100647.75
2023-05-12T18:16:21.724Z,100646.81
2023-05-12T18:18:54.843Z,100642.31
2023-05-12T18:21:21.499Z,100650.09
2023-05-12T18:23:48.106Z,100651.69
2023-05-12T18:26:14.668Z,100648.25
2023-05-12T18:28:43.599Z,100643.00
2023-05-12T18:31:15.506Z,100643.00
2023-05-12T18:33:43.528Z,100651.84
2023-05-12T18:36:10.634Z,100653.56
2023-05-12T18:38:40.242Z,100651.84
2023-05-12T18:41:10.388Z,100656.97
2023-05-12T18:43:39.500Z,100657.84
2023-05-12T18:46:06.523Z,100657.78
2023-05-12T18:48:33.192Z,100656.97
2023-05-12T18:50:59.929Z,100658.69
2023-05-12T18:53:26.574Z,100664.78
2023-05-12T18:55:53.258Z,100662.16
2023-05-12T18:58:19.971Z,100669.06
2023-05-12T19:00:46.989Z,100663.91
2023-05-12T19:03:14.023Z,100664.81
2023-05-12T19:05:45.546Z,100668.34
2023-05-12T19:08:12.859Z,100666.59
2023-05-12T19:10:40.121Z,100670.06
2023-05-12T19:13:08.530Z,100672.69
2023-05-12T19:15:38.690Z,100674.19
2023-05-12T19:18:05.685Z,100683.78
2023-05-12T19:20:32.519Z,100681.22
2023-05-12T19:23:02.727Z,100687.38
2023-05-12T19:25:32.677Z,100688.22
2023-05-12T19:27:59.598Z,100694.13
2023-05-12T19:30:27.934Z,100694.09
2023-05-12T19:32:59.422Z,100694.19
2023-05-12T19:35:28.511Z,100690.59
2023-05-12T19:37:55.226Z,100693.34
2023-05-12T19:40:30.697Z,100699.44
2023-05-12T19:42:57.612Z,100696.81
2023-05-12T19:45:24.386Z,100695.09
2023-05-12T19:47:52.206Z,100695.97
2023-05-12T19:50:20.216Z,100702.91
2023-05-12T19:52:46.881Z,100700.22
2023-05-12T19:55:13.537Z,100704.56
2023-05-12T19:57:40.488Z,100701.09
2023-05-12T20:00:10.085Z,100697.59
2023-05-12T20:02:40.018Z,100704.66
2023-05-12T20:05:07.072Z,100702.91
2023-05-12T20:07:34.210Z,100702.00
2023-05-12T20:10:04.158Z,100699.56
2023-05-12T20:12:30.905Z,100700.50
2023-05-12T20:14:57.524Z,100697.91
2023-05-12T20:17:24.204Z,100704.94
2023-05-12T20:19:57.024Z,100692.88
2023-05-12T20:22:23.938Z,100698.00
2023-05-12T20:24:51.405Z,100695.31
2023-05-12T20:27:20.615Z,100699.53
2023-05-12T20:29:47.197Z,100696.84
2023-05-12T20:32:16.394Z,100700.31
2023-05-12T20:34:43.440Z,100696.03
2023-05-12T20:37:10.451Z,100698.66
2023-05-12T20:39:39.509Z,100697.03
2023-05-12T20:42:06.447Z,100694.44
2023-05-12T20:44:38.008Z,100691.88
2023-05-12T20:47:04.767Z,100690.06
2023-05-12T20:49:34.112Z,100680.53
2023-05-12T20:52:00.751Z,100692.69
2023-05-12T20:54:29.824Z,100697.91
2023-05-12T20:56:56.422Z,100697.97
2023-05-12T20:59:26.198Z,100697.13
2023-05-12T21:01:52.896Z,100693.75
2023-05-12T21:04:22.041Z,100698.97
2023-05-12T21:06:53.353Z,100699.78
2023-05-12T21:09:20.474Z,100698.06
2023-05-12T21:11:47.287Z,100701.56
2023-05-12T21:14:14.103Z,100697.22
2023-05-12T21:16:45.909Z,100700.66
2023-05-12T21:19:17.547Z,100704.94
2023-05-12T21:21:44.229Z,100704.06
2023-05-12T21:24:13.278Z,100704.81
2023-05-12T21:26:40.096Z,100706.56
2023-05-12T21:29:06.652Z,100712.66
2023-05-12T21:31:33.326Z,100703.94
2023-05-12T21:34:00.057Z,100710.94
2023-05-12T21:36:27.054Z,100712.66
2023-05-12T21:38:55.782Z,100713.44
2023-05-12T21:41:22.539Z,100704.81
2023-05-12T21:43:49.166Z,100709.25
2023-05-12T21:46:18.264Z,100699.63
2023-05-12T21:48:44.963Z,100705.53
2023-05-12T21:51:14.174Z,100697.63
2023-05-12T21:53:43.844Z,100704.44
2023-05-12T21:56:10.485Z,100700.19
2023-05-12T21:58:37.121Z,100700.22
2023-05-12T22:01:06.297Z,100705.50
2023-05-12T22:03:33.183Z,100697.69
2023-05-12T22:05:59.824Z,100705.44
2023-05-12T22:08:26.503Z,100700.31
2023-05-12T22:10:53.080Z,100699.44
2023-05-12T22:13:20.261Z,100697.78
2023-05-12T22:15:46.951Z,100699.56
2023-05-12T22:18:13.970Z,100702.16
2023-05-12T22:20:41.250Z,100697.00
2023-05-12T22:23:07.955Z,100702.25
2023-05-12T22:25:34.558Z,100699.53
2023-05-12T22:28:04.860Z,100695.16
2023-05-12T22:30:33.346Z,100693.44
2023-05-12T22:33:02.440Z,100696.13
2023-05-12T22:35:29.394Z,100697.00
2023-05-12T22:37:56.079Z,100692.69
2023-05-12T22:40:27.011Z,100691.81
2023-05-12T22:42:55.952Z,100684.00
2023-05-12T22:45:22.530Z,100694.56
2023-05-12T22:47:51.647Z,100694.66
2023-05-12T22:50:18.842Z,100698.16
2023-05-12T22:52:46.443Z,100695.41
2023-05-12T22:55:15.533Z,100693.63
2023-05-12T22:57:43.878Z,100685.78
2023-05-12T23:00:13.345Z,100688.50
2023-05-12T23:02:40.363Z,100691.13
2023-05-12T23:05:07.474Z,100679.03
2023-05-12T23:07:33.995Z,100679.84
2023-05-12T23:10:03.873Z,100672.03
2023-05-12T23:12:30.601Z,100674.53
2023-05-12T23:14:57.198Z,100674.53
2023-05-12T23:17:26.290Z,100676.19
2023-05-12T23:19:53.538Z,100676.16
2023-05-12T23:22:20.365Z,100674.47
2023-05-12T23:24:47.268Z,100664.88
2023-05-12T23:27:13.940Z,100665.75
2023-05-12T23:29:40.533Z,100669.22
2023-05-12T23:32:07.308Z,100659.69
2023-05-12T23:34:40.194Z,100664.09
2023-05-12T23:37:07.330Z,100663.31
2023-05-12T23:39:33.991Z,100663.31
2023-05-12T23:42:01.227Z,100664.13
2023-05-12T23:44:27.995Z,100495.66
2023-05-12T23:46:56.896Z,100668.47
2023-05-12T23:49:23.634Z,100661.53
2023-05-12T23:51:50.268Z,100664.94
2023-05-12T23:54:16.880Z,100660.56
2023-05-12T23:56:44.023Z,100663.13
2023-05-12T23:59:10.714Z,100657.91
